CheckWX is a tool to help pilots better visualize weather data.  It is not intended as a substitute for an official pre-flight weather briefing.

19:04:03 UTC

KTQE METAR
Tekamah Municipal Airport
Tekamah, Nebraska, USA
Current

10 mins ago

KTQE 201854Z AUTO 15015KT 10SM CLR 15/05 A2973 RMK AO2 PK WND 15026/1806 SLP068 T01500050
Observed
Nov-20 @ 18:54 UTC
Wind
  • 150° at 15 KTS
Visibility
10 SM
Flight Rules
VFR
Cloud Levels
  • Clear skies
Temperature
15°C / 59°F
Dewpoint
C / 41°F
Humidity
51%
Altimeter
29.73" Hg
Pressure
1006.82 hPa
Previous

1 hour ago

KTQE 201754Z AUTO 14018G26KT 10SM CLR 15/04 A2976 RMK AO2 PK WND 14027/1725 SLP077 T01500044 10150 20028 58021
Observed
Nov-20 @ 17:54 UTC
Wind
  • 140° at 18 KTS
  • Gusting to 26 KTS
Visibility
10 SM
Flight Rules
VFR
Cloud Levels
  • Clear skies
Temperature
15°C / 59°F
Dewpoint
C / 39°F
Humidity
48%
Altimeter
29.76" Hg
Pressure
1007.82 hPa
Previous

2 hours ago

KTQE 201654Z AUTO 15017G26KT 10SM CLR 13/03 A2979 RMK AO2 PK WND 14027/1622 SLP087 T01330028
Observed
Nov-20 @ 16:54 UTC
Wind
  • 150° at 17 KTS
  • Gusting to 26 KTS
Visibility
10 SM
Flight Rules
VFR
Cloud Levels
  • Clear skies
Temperature
13°C / 55°F
Dewpoint
C / 37°F
Humidity
51%
Altimeter
29.79" Hg
Pressure
1008.82 hPa